createdAt,value
2023-10-14T00:00:15.328Z,63118.94
2023-10-14T00:01:17.337Z,63121.55
2023-10-14T00:02:19.360Z,63114.02
2023-10-14T00:03:21.257Z,63112.68
2023-10-14T00:04:23.327Z,63110.75
2023-10-14T00:05:25.584Z,63112.93
2023-10-14T00:06:28.144Z,63112.93
2023-10-14T00:07:30.147Z,63109.40
2023-10-14T00:08:38.282Z,63106.39
2023-10-14T00:09:40.267Z,63107.22
2023-10-14T00:10:44.422Z,63107.22
2023-10-14T00:11:46.386Z,63106.12
2023-10-14T00:12:48.869Z,63111.29
2023-10-14T00:13:50.951Z,63096.42
2023-10-14T00:14:52.964Z,63105.58
2023-10-14T00:15:54.927Z,63100.66
2023-10-14T00:16:57.195Z,63112.14
2023-10-14T00:17:59.346Z,63116.20
2023-10-14T00:19:03.715Z,63126.87
2023-10-14T00:20:07.543Z,63121.97
2023-10-14T00:21:12.267Z,63116.76
2023-10-14T00:22:14.242Z,63116.76
2023-10-14T00:23:16.368Z,63113.48
2023-10-14T00:24:19.672Z,63115.12
2023-10-14T00:25:23.206Z,63123.61
2023-10-14T00:26:28.001Z,63124.27
2023-10-14T00:27:29.996Z,63124.15
2023-10-14T00:28:31.946Z,63119.48
2023-10-14T00:29:36.907Z,63120.58
2023-10-14T00:30:39.627Z,63108.57
2023-10-14T00:31:43.074Z,63115.96
2023-10-14T00:32:45.229Z,63112.14
2023-10-14T00:33:47.389Z,63093.03
2023-10-14T00:34:49.588Z,63099.16
2023-10-14T00:35:52.416Z,63099.03
2023-10-14T00:36:54.577Z,63098.20
2023-10-14T00:37:56.713Z,63093.28
2023-10-14T00:38:58.933Z,63088.11
2023-10-14T00:40:00.843Z,63088.65
2023-10-14T00:41:02.842Z,63078.41
2023-10-14T00:42:05.743Z,63085.37
2023-10-14T00:43:07.835Z,63085.62
2023-10-14T00:44:13.247Z,63080.17
2023-10-14T00:45:15.268Z,63078.28
2023-10-14T00:46:18.305Z,63076.35
2023-10-14T00:47:20.814Z,63093.03
2023-10-14T00:48:22.899Z,63089.08
2023-10-14T00:49:26.311Z,63090.83
2023-10-14T00:50:28.654Z,63094.11
2023-10-14T00:51:32.236Z,63093.14
2023-10-14T00:52:34.244Z,63087.82
2023-10-14T00:53:41.198Z,63087.26
2023-10-14T00:54:45.381Z,63086.18
2023-10-14T00:55:48.820Z,63099.32
2023-10-14T00:56:51.290Z,63089.33
2023-10-14T00:57:53.731Z,63093.70
2023-10-14T00:59:00.489Z,63096.00
2023-10-14T01:00:03.208Z,63091.10
2023-10-14T01:01:05.267Z,63096.31
2023-10-14T01:02:10.904Z,63088.65
2023-10-14T01:04:25.441Z,63095.34
2023-10-14T01:05:27.705Z,63094.11
2023-10-14T01:06:30.113Z,63103.81
2023-10-14T01:07:32.042Z,63099.57
2023-10-14T01:08:34.384Z,63105.71
2023-10-14T01:09:36.292Z,63103.94
2023-10-14T01:10:38.739Z,63106.12
2023-10-14T01:11:40.665Z,63104.61
2023-10-14T01:12:42.756Z,63107.36
2023-10-14T01:13:45.201Z,63110.07
2023-10-14T01:14:48.843Z,63113.22
2023-10-14T01:15:52.163Z,63103.65
2023-10-14T01:16:54.526Z,63106.93
2023-10-14T01:17:56.844Z,63111.60
2023-10-14T01:18:58.942Z,63111.60
2023-10-14T01:20:02.974Z,63106.39
2023-10-14T01:21:06.317Z,63109.40
2023-10-14T01:22:11.725Z,63095.46
2023-10-14T01:23:13.973Z,63100.37
2023-10-14T01:24:18.013Z,63108.86
2023-10-14T01:25:20.106Z,63107.22
2023-10-14T01:26:22.193Z,63105.04
2023-10-14T01:27:24.516Z,63107.22
2023-10-14T01:28:26.594Z,63104.48
2023-10-14T01:29:28.483Z,63101.88
2023-10-14T01:30:30.550Z,63095.88
2023-10-14T01:32:01.563Z,63097.52
2023-10-14T01:33:04.829Z,63095.88
2023-10-14T01:34:07.493Z,63100.66
2023-10-14T01:35:09.940Z,63110.50
2023-10-14T01:36:12.183Z,63118.27
2023-10-14T01:37:14.348Z,63127.00
2023-10-14T01:38:16.425Z,63134.10
2023-10-14T01:39:18.594Z,63131.50
2023-10-14T01:40:25.024Z,63142.16
2023-10-14T01:41:27.314Z,63143.00
2023-10-14T01:42:29.422Z,63141.20
2023-10-14T01:43:31.442Z,63143.96
2023-10-14T01:44:33.334Z,63144.37
2023-10-14T01:45:37.491Z,63141.76
2023-10-14T01:46:39.871Z,63134.78
2023-10-14T01:47:41.925Z,63134.78
2023-10-14T01:48:45.357Z,63141.09
2023-10-14T01:49:47.532Z,63136.17
2023-10-14T01:50:51.532Z,63141.09
2023-10-14T01:51:53.487Z,63129.32
2023-10-14T01:52:55.567Z,63130.29
2023-10-14T01:53:57.649Z,63110.61
2023-10-14T01:54:59.808Z,63091.21
2023-10-14T01:56:03.282Z,63100.91
2023-10-14T01:57:05.591Z,63099.16
2023-10-14T01:58:08.748Z,63098.48
2023-10-14T01:59:10.902Z,63109.82
2023-10-14T02:00:13.983Z,63095.34
2023-10-14T02:01:16.599Z,63105.04
2023-10-14T02:02:18.930Z,63109.40
2023-10-14T02:03:22.092Z,63093.70
2023-10-14T02:04:24.749Z,63095.46
2023-10-14T02:05:27.481Z,63098.06
2023-10-14T02:06:30.415Z,63100.80
2023-10-14T02:07:32.569Z,63076.89
2023-10-14T02:08:34.649Z,63086.72
2023-10-14T02:09:36.585Z,63090.00
2023-10-14T02:10:38.717Z,63094.11
2023-10-14T02:11:40.757Z,63094.36
2023-10-14T02:12:42.802Z,63094.78
2023-10-14T02:13:44.941Z,63093.28
2023-10-14T02:14:46.898Z,63101.09
2023-10-14T02:15:50.195Z,63101.09
2023-10-14T02:16:52.520Z,63103.94
2023-10-14T02:17:54.668Z,63098.91
2023-10-14T02:18:57.291Z,63106.79
2023-10-14T02:19:59.533Z,63111.04
2023-10-14T02:21:01.568Z,63104.48
2023-10-14T02:22:05.069Z,63099.27
2023-10-14T02:23:07.262Z,63100.12
2023-10-14T02:24:09.931Z,63098.06
2023-10-14T02:25:12.036Z,63083.73
2023-10-14T02:26:20.479Z,63078.41
2023-10-14T02:27:22.654Z,63084.30
2023-10-14T02:28:26.221Z,63093.57
2023-10-14T02:29:28.296Z,63093.57
2023-10-14T02:30:30.631Z,63095.21
2023-10-14T02:31:33.787Z,63093.03
2023-10-14T02:32:35.861Z,63091.25
2023-10-14T02:33:37.908Z,63073.90
2023-10-14T02:34:41.352Z,63086.59
2023-10-14T02:35:43.605Z,63096.31
2023-10-14T02:36:45.839Z,63090.00
2023-10-14T02:37:47.994Z,63092.61
2023-10-14T02:38:50.032Z,63089.75
2023-10-14T02:39:52.141Z,63077.32
2023-10-14T02:40:54.842Z,63085.91
2023-10-14T02:41:56.857Z,63085.62
2023-10-14T02:42:59.199Z,63090.54
2023-10-14T02:44:01.273Z,63080.46
2023-10-14T02:45:03.545Z,63065.84
2023-10-14T02:46:05.825Z,63076.89
2023-10-14T02:47:08.270Z,63082.35
2023-10-14T02:48:10.337Z,63091.50
2023-10-14T02:49:14.638Z,63096.31
2023-10-14T02:50:17.435Z,63101.77
2023-10-14T02:51:24.120Z,63101.88
2023-10-14T02:52:26.191Z,63099.57
2023-10-14T02:53:28.136Z,63099.57
2023-10-14T02:54:30.877Z,63099.83
2023-10-14T02:55:34.925Z,63095.46
2023-10-14T02:56:38.287Z,63101.63
2023-10-14T02:57:40.337Z,63101.20
2023-10-14T02:58:42.543Z,63098.06
2023-10-14T02:59:45.178Z,63097.52
2023-10-14T03:00:48.485Z,63102.30
2023-10-14T03:01:50.730Z,63097.39
2023-10-14T03:02:52.800Z,63099.57
2023-10-14T03:03:55.288Z,63093.28
2023-10-14T03:04:58.694Z,63102.44
2023-10-14T03:06:01.520Z,63109.40
2023-10-14T03:07:03.560Z,63105.83
2023-10-14T03:08:05.910Z,63108.32
2023-10-14T03:09:07.838Z,63109.00
2023-10-14T03:10:12.217Z,63115.53
2023-10-14T03:11:14.391Z,63122.22
2023-10-14T03:12:16.782Z,63135.07
2023-10-14T03:13:19.993Z,63141.20
2023-10-14T03:14:22.104Z,63149.42
2023-10-14T03:15:24.426Z,63152.16
2023-10-14T03:16:26.500Z,63157.08
2023-10-14T03:17:28.640Z,63161.86
2023-10-14T03:18:30.605Z,63168.43
2023-10-14T03:19:32.552Z,63170.18
2023-10-14T03:20:37.069Z,63173.05
2023-10-14T03:21:39.010Z,63171.95
2023-10-14T03:22:40.995Z,63185.37
2023-10-14T03:23:42.941Z,63184.40
2023-10-14T03:24:45.601Z,63183.43
2023-10-14T03:25:51.020Z,63189.32
2023-10-14T03:26:53.381Z,63189.43
2023-10-14T03:27:57.565Z,63192.60
2023-10-14T03:29:00.264Z,63192.60
2023-10-14T03:30:02.411Z,63200.11
2023-10-14T03:31:05.579Z,63198.60
2023-10-14T03:32:08.328Z,63192.71
2023-10-14T03:33:15.224Z,63197.63
2023-10-14T03:34:17.225Z,63204.20
2023-10-14T03:35:19.184Z,63212.13
2023-10-14T03:36:21.300Z,63220.34
2023-10-14T03:37:23.193Z,63221.57
2023-10-14T03:38:25.584Z,63221.57
2023-10-14T03:39:28.040Z,63228.54
2023-10-14T03:40:30.176Z,63226.36
2023-10-14T03:41:32.119Z,63227.03
2023-10-14T03:42:34.328Z,63224.42
2023-10-14T03:43:38.530Z,63234.25
2023-10-14T03:44:40.472Z,63236.45
2023-10-14T03:45:43.106Z,63226.18
2023-10-14T03:46:45.390Z,63234.38
2023-10-14T03:47:47.996Z,63235.78
2023-10-14T03:48:50.755Z,63230.85
2023-10-14T03:49:52.775Z,63237.53
2023-10-14T03:50:54.785Z,63235.10
2023-10-14T03:51:56.720Z,63233.59
2023-10-14T03:52:58.720Z,63246.16
2023-10-14T03:54:01.756Z,63240.57
2023-10-14T03:55:04.845Z,63240.81
2023-10-14T03:56:07.472Z,63248.59
2023-10-14T03:57:10.196Z,63259.83
2023-10-14T03:58:12.666Z,63267.48
2023-10-14T03:59:19.404Z,63264.46
2023-10-14T04:00:26.971Z,63277.76
2023-10-14T04:01:31.065Z,63271.02
2023-10-14T04:02:33.223Z,63285.00
2023-10-14T04:03:35.201Z,63287.31
2023-10-14T04:04:37.280Z,63293.75
2023-10-14T04:05:43.458Z,63292.21
2023-10-14T04:06:49.451Z,63297.03
2023-10-14T04:07:51.468Z,63300.31
2023-10-14T04:08:53.595Z,63288.95
2023-10-14T04:09:55.519Z,63286.34
2023-10-14T04:10:58.104Z,63297.03
2023-10-14T04:12:01.500Z,63281.95
2023-10-14T04:13:05.096Z,63292.10
2023-10-14T04:14:07.075Z,63296.89
2023-10-14T04:15:10.460Z,63288.95
2023-10-14T04:16:12.742Z,63287.42
2023-10-14T04:17:14.736Z,63294.42
2023-10-14T04:18:16.777Z,63296.17
2023-10-14T04:19:18.769Z,63308.39
2023-10-14T04:20:22.617Z,63307.96
2023-10-14T04:21:24.609Z,63309.73
2023-10-14T04:22:26.844Z,63311.92
2023-10-14T04:23:29.640Z,63313.02
2023-10-14T04:24:32.848Z,63315.74
2023-10-14T04:25:34.752Z,63324.79
2023-10-14T04:26:37.341Z,63320.00
2023-10-14T04:27:41.280Z,63325.89
2023-10-14T04:28:43.468Z,63321.77
2023-10-14T04:29:45.516Z,63330.39
2023-10-14T04:30:47.668Z,63330.52
2023-10-14T04:31:49.988Z,63331.60
2023-10-14T04:32:53.305Z,63332.70
2023-10-14T04:33:55.643Z,63333.80
2023-10-14T04:34:57.855Z,63342.86
2023-10-14T04:36:00.029Z,63337.63
2023-10-14T04:37:03.146Z,63340.37
2023-10-14T04:38:05.344Z,63346.68
2023-10-14T04:39:07.532Z,63336.23
2023-10-14T04:40:10.950Z,63339.95
2023-10-14T04:41:13.154Z,63345.30
2023-10-14T04:42:16.016Z,63350.77
2023-10-14T04:43:18.170Z,63356.11
2023-10-14T04:44:20.357Z,63361.71
2023-10-14T04:45:22.281Z,63371.20
2023-10-14T04:46:24.758Z,63367.74
2023-10-14T04:47:26.921Z,63373.64
2023-10-14T04:48:38.706Z,63372.11
2023-10-14T04:49:41.095Z,63372.54
2023-10-14T04:50:44.052Z,63376.37
2023-10-14T04:51:46.107Z,63374.29
2023-10-14T04:52:48.252Z,63376.50
2023-10-14T04:53:50.195Z,63376.50
2023-10-14T04:54:52.750Z,63384.45
2023-10-14T04:55:55.579Z,63378.14
2023-10-14T04:56:58.023Z,63384.15
2023-10-14T04:58:00.426Z,63383.07
2023-10-14T04:59:02.780Z,63388.30
2023-10-14T05:00:06.601Z,63385.79
2023-10-14T05:01:10.188Z,63393.77
2023-10-14T05:02:13.479Z,63392.23
2023-10-14T05:03:17.404Z,63390.85
2023-10-14T05:04:19.482Z,63395.65
2023-10-14T05:05:21.610Z,63397.17
2023-10-14T05:06:25.296Z,63400.58
2023-10-14T05:07:27.758Z,63407.59
2023-10-14T05:08:30.375Z,63404.00
2023-10-14T05:09:32.550Z,63411.54
2023-10-14T05:10:34.684Z,63418.55
2023-10-14T05:11:36.694Z,63413.86
2023-10-14T05:12:38.651Z,63417.69
2023-10-14T05:13:41.702Z,63420.97
2023-10-14T05:14:44.033Z,63427.31
2023-10-14T05:15:47.071Z,63421.10
2023-10-14T05:16:50.499Z,63420.56
2023-10-14T05:17:54.166Z,63432.11
2023-10-14T05:18:56.340Z,63432.35
2023-10-14T05:19:58.417Z,63438.39
2023-10-14T05:21:00.697Z,63443.99
2023-10-14T05:22:03.893Z,63450.13
2023-10-14T05:23:05.890Z,63470.58
2023-10-14T05:24:09.598Z,63476.61
2023-10-14T05:25:11.646Z,63481.11
2023-10-14T05:26:13.974Z,63489.10
2023-10-14T05:27:16.968Z,63489.45
2023-10-14T05:28:18.930Z,63505.22
2023-10-14T05:29:21.276Z,63510.70
2023-10-14T05:30:26.140Z,63516.74
2023-10-14T05:31:28.223Z,63528.23
2023-10-14T05:32:30.494Z,63528.23
2023-10-14T05:33:32.659Z,63535.92
2023-10-14T05:34:34.711Z,63536.28
2023-10-14T05:36:49.052Z,63561.25
2023-10-14T05:37:51.101Z,63572.54
2023-10-14T05:38:53.418Z,63581.84
2023-10-14T05:39:56.893Z,63591.29
2023-10-14T05:40:59.854Z,63599.23
2023-10-14T05:42:02.071Z,63609.96
2023-10-14T05:43:04.665Z,63616.67
2023-10-14T05:44:06.840Z,63623.13
2023-10-14T05:45:10.196Z,63629.71
2023-10-14T05:46:12.354Z,63636.97
2023-10-14T05:47:17.136Z,63641.79
2023-10-14T05:48:21.289Z,63642.02
2023-10-14T05:49:23.833Z,63650.56
2023-10-14T05:50:26.391Z,63658.23
2023-10-14T05:51:28.346Z,63663.30
2023-10-14T05:52:30.513Z,63668.11
2023-10-14T05:53:32.521Z,63674.83
2023-10-14T05:54:35.495Z,63678.66
2023-10-14T05:55:37.884Z,63684.27
2023-10-14T05:56:40.087Z,63697.75
2023-10-14T05:57:42.052Z,63705.88
2023-10-14T05:58:45.150Z,63701.29
2023-10-14T05:59:49.180Z,63712.70
2023-10-14T06:00:51.276Z,63722.46
2023-10-14T06:01:53.396Z,63728.07
2023-10-14T06:02:59.602Z,63729.82
2023-10-14T06:04:01.684Z,63753.44
2023-10-14T06:05:04.816Z,63762.12
2023-10-14T06:06:07.580Z,63770.01
2023-10-14T06:07:10.838Z,63773.54
2023-10-14T06:08:12.832Z,63777.52
2023-10-14T06:09:15.113Z,63785.32
2023-10-14T06:10:18.395Z,63801.69
2023-10-14T06:11:20.382Z,63819.71
2023-10-14T06:12:22.372Z,63822.67
2023-10-14T06:13:28.874Z,63834.53
2023-10-14T06:14:31.022Z,63846.62
2023-10-14T06:15:41.560Z,63845.64
2023-10-14T06:16:44.374Z,63855.09
2023-10-14T06:17:48.696Z,63873.56
2023-10-14T06:18:50.845Z,63872.70
2023-10-14T06:19:52.988Z,63894.45
2023-10-14T06:20:55.094Z,63907.11
2023-10-14T06:21:57.662Z,63903.47
2023-10-14T06:22:59.650Z,63910.39
2023-10-14T06:24:01.583Z,63915.02
2023-10-14T06:25:05.674Z,63926.59
2023-10-14T06:26:09.360Z,63942.54
2023-10-14T06:27:11.999Z,63939.80
2023-10-14T06:28:15.378Z,63959.82
2023-10-14T06:29:17.798Z,63960.70
2023-10-14T06:30:20.518Z,63968.39
2023-10-14T06:31:24.036Z,63989.74
2023-10-14T06:32:26.273Z,64001.07
2023-10-14T06:33:28.595Z,64029.36
2023-10-14T06:34:32.058Z,64026.18
2023-10-14T06:35:35.366Z,64038.61
2023-10-14T06:36:38.362Z,64040.48
2023-10-14T06:37:40.300Z,64038.83
2023-10-14T06:38:44.419Z,64037.62
2023-10-14T06:39:52.714Z,64053.16
2023-10-14T06:40:57.856Z,64052.05
2023-10-14T06:42:00.177Z,64064.18
2023-10-14T06:43:04.853Z,64081.04
2023-10-14T06:44:06.980Z,64071.78
2023-10-14T06:45:08.919Z,64074.31
2023-10-14T06:46:11.022Z,64102.72
2023-10-14T06:47:14.448Z,64104.04
2023-10-14T06:48:16.893Z,64098.87
2023-10-14T06:49:18.986Z,64098.21
2023-10-14T06:50:23.573Z,64133.80
2023-10-14T06:51:26.075Z,64114.29
2023-10-14T06:52:29.079Z,64125.53
2023-10-14T06:53:31.178Z,64110.89
2023-10-14T06:54:34.541Z,64133.02
2023-10-14T06:55:37.606Z,64116.61
2023-10-14T06:56:39.763Z,64135.79
2023-10-14T06:57:41.871Z,64145.26
2023-10-14T06:58:44.260Z,64158.91
2023-10-14T06:59:46.329Z,64166.64
2023-10-14T07:00:49.507Z,64162.22
2023-10-14T07:01:52.402Z,64171.04
2023-10-14T07:02:55.624Z,64155.61
2023-10-14T07:03:58.431Z,64114.41
2023-10-14T07:05:00.544Z,64117.38
2023-10-14T07:06:02.756Z,64124.75
2023-10-14T07:07:05.231Z,64117.05
2023-10-14T07:08:07.232Z,64116.61
2023-10-14T07:09:11.309Z,64115.94
2023-10-14T07:10:14.548Z,64107.02
2023-10-14T07:11:16.701Z,64097.87
2023-10-14T07:12:18.850Z,64095.02
2023-10-14T07:13:22.328Z,64093.91
2023-10-14T07:14:24.689Z,64092.82
2023-10-14T07:16:39.112Z,64112.64
2023-10-14T07:17:42.832Z,64105.93
2023-10-14T07:18:44.943Z,64117.93
2023-10-14T07:19:47.486Z,64137.86
2023-10-14T07:21:00.181Z,64133.68
2023-10-14T07:22:02.295Z,64113.75
2023-10-14T07:23:04.435Z,64145.14
2023-10-14T07:24:07.909Z,64154.85
2023-10-14T07:25:10.673Z,64142.94
2023-10-14T07:26:14.301Z,64148.99
2023-10-14T07:27:16.337Z,64155.51
2023-10-14T07:28:18.579Z,64162.22
2023-10-14T07:29:21.601Z,64146.79
2023-10-14T07:30:24.008Z,64138.97
2023-10-14T07:31:26.129Z,64164.54
2023-10-14T07:32:28.313Z,64161.11
2023-10-14T07:33:30.397Z,64175.22
2023-10-14T07:34:33.606Z,64171.04
2023-10-14T07:35:36.089Z,64188.69
2023-10-14T07:36:38.303Z,64165.74
2023-10-14T07:37:47.787Z,64181.53
2023-10-14T07:38:49.870Z,64183.18
2023-10-14T07:39:51.835Z,64211.73
2023-10-14T07:40:57.103Z,64211.19
2023-10-14T07:41:59.155Z,64202.37
2023-10-14T07:43:05.771Z,64199.93
2023-10-14T07:44:07.416Z,64212.39
2023-10-14T07:45:10.344Z,64191.45
2023-10-14T07:46:12.824Z,64210.53
2023-10-14T07:47:14.973Z,64212.94
2023-10-14T07:48:16.927Z,64211.73
2023-10-14T07:49:20.155Z,64214.16
2023-10-14T07:50:23.201Z,64202.04
2023-10-14T07:51:30.258Z,64216.91
2023-10-14T07:52:28.975Z,64210.74
2023-10-14T07:53:30.956Z,64229.48
2023-10-14T07:54:33.076Z,64234.33
2023-10-14T07:55:40.329Z,64237.21
2023-10-14T07:56:42.486Z,64242.61
2023-10-14T07:57:44.405Z,64264.78
2023-10-14T07:58:46.356Z,64268.64
2023-10-14T07:59:48.582Z,64279.57
2023-10-14T08:00:53.242Z,64282.97
2023-10-14T08:01:55.329Z,64299.64
2023-10-14T08:02:57.477Z,64289.59
2023-10-14T08:03:59.678Z,64265.45
2023-10-14T08:05:02.277Z,64271.50
2023-10-14T08:06:08.217Z,64281.88
2023-10-14T08:07:10.332Z,64283.75
2023-10-14T08:08:12.709Z,64314.88
2023-10-14T08:09:14.833Z,64310.12
2023-10-14T08:10:18.738Z,64323.48
2023-10-14T08:11:22.386Z,64326.68
2023-10-14T08:12:24.645Z,64322.16
2023-10-14T08:13:28.362Z,64314.43
2023-10-14T08:14:30.356Z,64330.99
2023-10-14T08:15:33.070Z,64322.82
2023-10-14T08:16:35.385Z,64329.79
2023-10-14T08:17:37.551Z,64329.45
2023-10-14T08:18:40.181Z,64326.79
2023-10-14T08:19:42.272Z,64342.58
2023-10-14T08:20:44.603Z,64337.16
2023-10-14T08:21:46.540Z,64351.41
2023-10-14T08:22:48.738Z,64357.58
2023-10-14T08:23:50.814Z,64362.44
2023-10-14T08:24:52.755Z,64375.14
2023-10-14T08:25:55.667Z,64358.24
2023-10-14T08:26:58.270Z,64370.72
2023-10-14T08:28:01.228Z,64360.44
2023-10-14T08:29:06.305Z,64355.27
2023-10-14T08:30:11.056Z,64364.21
2023-10-14T08:31:18.057Z,64373.15
2023-10-14T08:32:20.244Z,64361.78
2023-10-14T08:33:24.344Z,64369.61
2023-10-14T08:34:26.441Z,64374.24
2023-10-14T08:35:28.919Z,64383.52
2023-10-14T08:36:31.089Z,64389.60
2023-10-14T08:37:33.146Z,64390.15
2023-10-14T08:38:35.224Z,64397.21
2023-10-14T08:39:37.365Z,64410.49
2023-10-14T08:40:41.294Z,64401.86
2023-10-14T08:41:47.170Z,64391.69
2023-10-14T08:42:52.634Z,64389.15
2023-10-14T08:43:58.524Z,64377.55
2023-10-14T08:45:02.234Z,64382.41
2023-10-14T08:46:05.598Z,64387.38
2023-10-14T08:47:11.202Z,64392.35
2023-10-14T08:48:13.012Z,64396.66
2023-10-14T08:49:17.366Z,64407.17
2023-10-14T08:50:23.167Z,64401.29
2023-10-14T08:51:39.228Z,64394.12
2023-10-14T08:52:31.583Z,64412.69
2023-10-14T08:53:33.821Z,64420.43
2023-10-14T08:54:37.818Z,64430.37
2023-10-14T08:55:42.126Z,64432.78
2023-10-14T08:56:47.818Z,64437.20
2023-10-14T08:57:51.689Z,64449.24
2023-10-14T08:58:53.907Z,64447.13
2023-10-14T08:59:56.000Z,64444.84
2023-10-14T09:00:58.934Z,64456.87
2023-10-14T09:02:03.044Z,64454.87
2023-10-14T09:03:09.116Z,64455.98
2023-10-14T09:04:11.765Z,64453.32
2023-10-14T09:05:14.128Z,64442.07
2023-10-14T09:06:17.923Z,64450.81
2023-10-14T09:07:21.963Z,64450.90
2023-10-14T09:08:24.189Z,64465.16
2023-10-14T09:09:26.483Z,64449.79
2023-10-14T09:10:29.460Z,64451.56
2023-10-14T09:11:32.110Z,64450.45
2023-10-14T09:12:34.148Z,64454.76
2023-10-14T09:13:36.692Z,64453.76
2023-10-14T09:14:39.585Z,64451.56
2023-10-14T09:15:43.153Z,64457.33
2023-10-14T09:16:49.999Z,64453.10
2023-10-14T09:17:52.489Z,64449.90
2023-10-14T09:18:59.207Z,64461.39
2023-10-14T09:20:01.350Z,64458.30
2023-10-14T09:21:04.963Z,64471.79
2023-10-14T09:22:07.629Z,64460.96
2023-10-14T09:23:28.470Z,64470.14
2023-10-14T09:24:32.022Z,64474.77
2023-10-14T09:25:36.191Z,64477.43
2023-10-14T09:26:41.639Z,64481.29
2023-10-14T09:27:47.905Z,64488.46
2023-10-14T09:28:51.845Z,64485.70
2023-10-14T09:29:53.978Z,64493.98
2023-10-14T09:30:59.176Z,64478.62
2023-10-14T09:32:01.465Z,64480.63
2023-10-14T09:33:05.261Z,64466.48
2023-10-14T09:34:07.277Z,64471.23
2023-10-14T09:35:09.278Z,64474.11
2023-10-14T09:36:16.531Z,64480.72
2023-10-14T09:37:19.299Z,64486.70
2023-10-14T09:38:23.871Z,64488.92
2023-10-14T09:39:26.080Z,64484.60
2023-10-14T09:40:28.317Z,64491.78
2023-10-14T09:41:30.642Z,64498.96
2023-10-14T09:42:33.524Z,64502.28
2023-10-14T09:43:38.803Z,64512.79
2023-10-14T09:44:43.010Z,64517.22
2023-10-14T09:45:50.377Z,64521.17
2023-10-14T09:46:52.804Z,64526.26
2023-10-14T09:47:56.592Z,64536.56
2023-10-14T09:48:59.846Z,64538.22
2023-10-14T09:50:02.848Z,64543.74
2023-10-14T09:51:07.068Z,64549.26
2023-10-14T09:52:11.705Z,64544.86
2023-10-14T09:53:15.515Z,64553.12
2023-10-14T09:54:18.362Z,64554.13
2023-10-14T09:55:24.195Z,64553.70
2023-10-14T09:56:40.930Z,64563.08
2023-10-14T09:57:34.244Z,64565.85
2023-10-14T09:59:50.838Z,64568.71
2023-10-14T10:00:53.684Z,64570.27
2023-10-14T10:01:55.754Z,64567.60
2023-10-14T10:02:58.882Z,64570.27
2023-10-14T10:04:04.658Z,64579.02
2023-10-14T10:05:08.664Z,64576.44
2023-10-14T10:06:17.580Z,64580.22
2023-10-14T10:07:52.326Z,64588.41
2023-10-14T10:09:03.763Z,64579.76
2023-10-14T10:10:20.021Z,64570.92
2023-10-14T10:11:23.824Z,64570.72
2023-10-14T10:12:29.648Z,64555.90
2023-10-14T10:13:32.238Z,64568.06
2023-10-14T10:14:40.554Z,64517.22
2023-10-14T10:15:42.864Z,64574.23
2023-10-14T10:16:54.242Z,64577.01
2023-10-14T10:17:59.499Z,64584.65
2023-10-14T10:19:01.665Z,64595.70
2023-10-14T10:20:08.968Z,64596.36
2023-10-14T10:21:11.951Z,64603.45
2023-10-14T10:22:18.168Z,64603.89
2023-10-14T10:23:22.745Z,64612.10
2023-10-14T10:24:33.552Z,64593.04
2023-10-14T10:25:42.053Z,64590.83
2023-10-14T10:26:58.768Z,64605.00
2023-10-14T10:28:21.236Z,64604.11
2023-10-14T10:29:26.037Z,64608.19
2023-10-14T10:30:28.557Z,64622.91
2023-10-14T10:31:31.514Z,64630.46
2023-10-14T10:32:35.036Z,64639.31
2023-10-14T10:33:55.252Z,64639.61
2023-10-14T10:35:14.048Z,64636.19
2023-10-14T10:37:52.507Z,64632.87
2023-10-14T10:38:56.447Z,64632.87
2023-10-14T10:39:59.161Z,64638.20
2023-10-14T10:41:19.482Z,64629.55
2023-10-14T10:42:21.682Z,64619.59
2023-10-14T10:43:23.930Z,64605.77
2023-10-14T10:44:26.422Z,64609.54
2023-10-14T10:45:32.559Z,64600.79
2023-10-14T10:46:38.733Z,64598.56
2023-10-14T10:47:51.430Z,64596.81
2023-10-14T10:48:54.260Z,64599.67
2023-10-14T10:49:59.198Z,64593.04
2023-10-14T10:51:02.342Z,64595.24
2023-10-14T10:52:11.671Z,64599.67
2023-10-14T10:53:16.388Z,64596.36
2023-10-14T10:54:18.556Z,64589.17
2023-10-14T10:55:22.842Z,64586.40
2023-10-14T10:56:27.625Z,64599.57
2023-10-14T10:57:30.504Z,64601.88
2023-10-14T10:58:33.000Z,64603.54
2023-10-14T10:59:36.380Z,64607.07
2023-10-14T11:00:41.007Z,64622.91
2023-10-14T11:01:43.462Z,64625.03
2023-10-14T11:02:45.621Z,64643.83
2023-10-14T11:03:47.837Z,64650.37
2023-10-14T11:04:50.604Z,64651.13
2023-10-14T11:05:52.910Z,64661.07
2023-10-14T11:06:55.147Z,64664.30
2023-10-14T11:07:58.082Z,64657.86
2023-10-14T11:09:01.788Z,64661.18
2023-10-14T11:10:04.956Z,64673.26
2023-10-14T11:12:18.583Z,64691.61
2023-10-14T11:13:20.569Z,64685.43
2023-10-14T11:14:25.624Z,64697.49
2023-10-14T11:15:29.884Z,64708.13
2023-10-14T11:16:32.065Z,64721.21
2023-10-14T11:17:37.256Z,64711.45
2023-10-14T11:20:01.549Z,64739.12
2023-10-14T11:21:04.417Z,64716.98
2023-10-14T11:23:31.913Z,64703.70
2023-10-14T11:25:51.844Z,64709.23
2023-10-14T11:26:56.372Z,64701.27
2023-10-14T11:28:02.090Z,64698.71
2023-10-14T11:29:06.128Z,64694.36
2023-10-14T11:30:13.809Z,64698.61
2023-10-14T11:31:20.728Z,64702.58
2023-10-14T11:32:23.434Z,64702.58
2023-10-14T11:33:26.424Z,64705.90
2023-10-14T11:34:35.594Z,64705.25
2023-10-14T11:35:37.931Z,64690.39
2023-10-14T11:36:47.525Z,64687.09
2023-10-14T11:37:58.343Z,64682.76
2023-10-14T11:38:57.640Z,64688.18
2023-10-14T11:41:16.926Z,64693.48
2023-10-14T11:42:21.479Z,64688.18
2023-10-14T11:43:25.298Z,64691.96
2023-10-14T11:44:29.394Z,64688.18
2023-10-14T11:45:36.555Z,64690.39
2023-10-14T11:46:40.637Z,64681.65
2023-10-14T11:47:42.785Z,64679.88
2023-10-14T11:48:47.123Z,64687.53
2023-10-14T11:49:49.241Z,64694.82
2023-10-14T11:51:06.805Z,64700.37
2023-10-14T11:52:12.036Z,64715.32
2023-10-14T11:53:20.448Z,64724.72
2023-10-14T11:54:24.318Z,64736.24
2023-10-14T11:55:28.351Z,64731.37
2023-10-14T11:56:34.133Z,64734.14
2023-10-14T11:57:40.027Z,64736.24
2023-10-14T11:58:42.118Z,64739.12
2023-10-14T11:59:47.718Z,64736.35
2023-10-14T12:00:53.019Z,64729.81
2023-10-14T12:01:57.369Z,64716.98
2023-10-14T12:03:01.545Z,64727.39
2023-10-14T12:04:04.954Z,64719.09
2023-10-14T12:05:10.825Z,64720.75
2023-10-14T12:06:14.706Z,64714.21
2023-10-14T12:07:22.684Z,64709.79
2023-10-14T12:08:33.531Z,64694.82
2023-10-14T12:09:35.619Z,64716.79
2023-10-14T12:10:37.769Z,64708.57
2023-10-14T12:11:45.850Z,64707.92
2023-10-14T12:12:47.946Z,64702.58
2023-10-14T12:13:51.642Z,64702.58
2023-10-14T12:14:53.758Z,64709.23
2023-10-14T12:15:58.948Z,64720.20
2023-10-14T12:17:12.760Z,64724.53
2023-10-14T12:18:18.373Z,64725.18
2023-10-14T12:19:23.470Z,64718.08
2023-10-14T12:20:28.213Z,64714.96
2023-10-14T12:21:30.263Z,64712.74
2023-10-14T12:22:34.156Z,64722.41
2023-10-14T12:23:38.028Z,64713.66
2023-10-14T12:24:40.638Z,64684.77
2023-10-14T12:25:42.539Z,64709.98
2023-10-14T12:26:44.657Z,64705.00
2023-10-14T12:27:47.414Z,64705.00
2023-10-14T12:28:51.440Z,64713.66
2023-10-14T12:29:56.406Z,64714.78
2023-10-14T12:31:02.683Z,64714.78
2023-10-14T12:32:17.962Z,64711.89
2023-10-14T12:33:11.338Z,64711.45
2023-10-14T12:34:20.464Z,64704.81
2023-10-14T12:35:22.571Z,64709.79
2023-10-14T12:36:30.265Z,64708.68
2023-10-14T12:37:30.002Z,64710.23
2023-10-14T12:38:32.468Z,64707.02